Time;durP1;ratioP1;P1;durP2;ratioP2;P2;SDS_P1;SDS_P2;PMS_P1;PMS_P2;Temp;Humidity;BMP_temperature;BMP_pressure;BME280_temperature;BME280_humidity;BME280_pressure;Samples;Min_cycle;Max_cycle;Signal;HPM_P1;HPM_P2
2022/11/04 04:55:43;;;;;;;44.67;25.98;;;;;;;12.36;88.22;100041.84;5606154;31;77882;-56
2022/11/04 04:58:46;;;;;;;45.40;25.48;;;;;;;12.36;88.22;100041.84;5583468;31;34228;-56
2022/11/04 05:01:48;;;;;;;44.25;26.50;;;;;;;11.96;89.92;100043.44;5583666;32;33638;-56
2022/11/04 05:04:50;;;;;;;43.95;26.90;;;;;;;11.96;89.52;100040.75;5583513;31;34304;-56
2022/11/04 05:07:52;;;;;;;48.97;27.58;;;;;;;11.92;89.16;100043.25;5583815;31;34294;-56
2022/11/04 05:10:55;;;;;;;44.53;27.62;;;;;;;11.88;89.71;100041.44;5583528;32;33639;-56
2022/11/04 05:13:57;;;;;;;46.85;26.77;;;;;;;11.88;90.81;100031.47;5582012;32;33546;-56
2022/11/04 05:16:59;;;;;;;41.40;26.70;;;;;;;12.00;88.06;100039.06;5583326;32;33645;-56
2022/11/04 05:20:01;;;;;;;43.15;26.45;;;;;;;11.99;87.82;100043.66;5583272;31;33688;-57
2022/11/04 05:23:04;;;;;;;43.33;26.30;;;;;;;11.96;87.85;100051.50;5583477;31;33153;-56
2022/11/04 05:26:06;;;;;;;38.88;25.23;;;;;;;11.98;88.25;100054.66;5592298;31;33934;-56
2022/11/04 05:29:09;;;;;;;43.92;26.73;;;;;;;12.01;87.76;100055.97;5573175;31;33823;-56
2022/11/04 05:32:11;;;;;;;40.92;26.87;;;;;;;12.04;86.79;100053.50;5563733;32;34257;-56
2022/11/04 05:35:13;;;;;;;41.53;25.65;;;;;;;11.84;88.18;100057.34;5563383;32;33720;-57
2022/11/04 05:38:15;;;;;;;41.63;26.33;;;;;;;11.88;87.28;100049.50;5563830;32;34328;-56
2022/11/04 05:41:24;;;;;;;43.65;27.52;;;;;;;11.98;87.38;100043.94;5563409;32;34153;-56
2022/11/04 05:44:26;;;;;;;42.13;27.77;;;;;;;12.01;86.26;100042.53;5563387;32;34220;-57
2022/11/04 05:47:29;;;;;;;45.70;27.58;;;;;;;11.98;86.45;100035.88;5573335;32;33704;-56
2022/11/04 05:50:32;;;;;;;43.97;28.45;;;;;;;12.01;86.69;100045.22;5578565;32;33380;-56
2022/11/04 05:53:34;;;;;;;46.20;29.52;;;;;;;11.97;86.41;100039.66;5575170;31;34320;-57
2022/11/04 05:56:36;;;;;;;47.53;30.45;;;;;;;11.91;87.19;100047.00;5575233;32;33524;-57
2022/11/04 05:59:39;;;;;;;48.97;31.45;;;;;;;11.75;88.22;100054.53;5580518;31;33672;-56
2022/11/04 06:02:41;;;;;;;50.10;31.50;;;;;;;11.77;87.98;100057.69;5580171;32;34544;-56
2022/11/04 06:05:43;;;;;;;49.38;31.73;;;;;;;11.86;87.24;100065.13;5573607;32;33574;-57
2022/11/04 06:08:45;;;;;;;49.03;31.90;;;;;;;11.87;86.81;100055.97;5567382;32;33193;-56
2022/11/04 06:11:48;;;;;;;52.47;34.28;;;;;;;11.87;87.13;100064.81;5562808;32;34331;-57
2022/11/04 06:14:50;;;;;;;48.47;32.92;;;;;;;11.86;87.45;100059.75;5560032;32;33771;-57
2022/11/04 06:17:52;;;;;;;55.35;34.63;;;;;;;11.98;86.50;100060.03;5565020;32;34928;-56
2022/11/04 06:21:12;;;;;;;52.80;32.08;;;;;;;12.01;85.83;100058.66;5565291;32;33804;-57
2022/11/04 06:24:14;;;;;;;49.92;32.53;;;;;;;12.01;86.00;100056.78;5558071;32;34458;-57
2022/11/04 06:27:17;;;;;;;53.20;30.62;;;;;;;11.90;86.29;100066.12;5564717;32;33955;-57
2022/11/04 06:30:20;;;;;;;48.42;30.50;;;;;;;11.89;86.87;100068.00;5561987;32;33400;-57
2022/11/04 06:33:22;;;;;;;50.12;31.73;;;;;;;11.93;85.71;100070.91;5563211;32;33630;-56
2022/11/04 06:36:24;;;;;;;56.55;31.48;;;;;;;11.96;85.21;100067.63;5566710;32;33279;-56
2022/11/04 06:39:26;;;;;;;52.62;31.52;;;;;;;11.97;85.92;100063.84;5565192;32;34405;-57
2022/11/04 06:42:29;;;;;;;48.90;30.65;;;;;;;11.94;85.29;100053.69;5567902;32;33901;-56
2022/11/04 06:45:31;;;;;;;51.20;32.00;;;;;;;11.84;85.93;100068.09;5567084;32;33980;-56
2022/11/04 06:48:33;;;;;;;48.83;31.67;;;;;;;11.74;86.31;100068.25;5568473;32;33622;-56
2022/11/04 06:51:35;;;;;;;49.28;30.08;;;;;;;11.68;86.10;100062.16;5561332;32;33289;-56
2022/11/04 06:54:38;;;;;;;51.20;32.65;;;;;;;11.80;86.29;100059.00;5562838;32;34420;-57
2022/11/04 06:57:40;;;;;;;51.37;31.15;;;;;;;11.86;85.67;100068.59;5563846;32;33565;-57
2022/11/04 07:00:43;;;;;;;51.78;32.80;;;;;;;11.87;85.48;100067.50;5568493;32;33236;-57
2022/11/04 07:03:54;;;;;;;49.47;32.60;;;;;;;11.90;85.83;100064.22;5568663;32;34158;-56
2022/11/04 07:06:56;;;;;;;47.45;29.70;;;;;;;11.90;85.48;100063.44;5567034;32;33641;-57
2022/11/04 07:09:58;;;;;;;47.00;28.85;;;;;;;11.89;84.96;100062.62;5568199;32;34232;-56
2022/11/04 07:13:00;;;;;;;45.80;28.62;;;;;;;11.84;86.43;100068.09;5568860;32;33327;-56
2022/11/04 07:16:05;;;;;;;54.00;28.55;;;;;;;11.90;84.25;100072.28;5567167;32;33699;-56
2022/11/04 07:19:07;;;;;;;53.95;27.83;;;;;;;11.91;84.15;100067.69;5567448;32;33654;-56
2022/11/04 07:22:09;;;;;;;55.08;30.10;;;;;;;11.76;85.36;100061.50;5568935;32;33340;-56
2022/11/04 07:25:11;;;;;;;48.15;28.17;;;;;;;11.62;86.17;100068.72;5568230;32;33625;-56
2022/11/04 07:28:14;;;;;;;47.83;27.87;;;;;;;11.69;86.04;100063.75;5566130;32;33754;-56
2022/11/04 07:31:16;;;;;;;48.25;30.02;;;;;;;11.85;84.86;100075.03;5568815;32;34275;-57
2022/11/04 07:34:19;;;;;;;45.85;28.73;;;;;;;11.88;84.79;100065.59;5566493;32;33210;-56
2022/11/04 07:37:21;;;;;;;52.92;31.67;;;;;;;11.89;84.16;100065.31;5566238;32;33289;-57
2022/11/04 07:40:23;;;;;;;50.03;29.90;;;;;;;11.87;84.26;100064.03;5565914;32;33646;-56
2022/11/04 07:43:26;;;;;;;45.20;27.08;;;;;;;11.81;85.04;100065.16;5567507;32;33717;-56
2022/11/04 07:46:28;;;;;;;47.70;29.63;;;;;;;11.82;84.90;100054.16;5566230;32;33892;-56
2022/11/04 07:49:30;;;;;;;46.42;28.20;;;;;;;11.90;83.73;100060.75;5567728;32;34354;-56
2022/11/04 07:52:33;;;;;;;50.08;30.48;;;;;;;11.90;83.65;100055.38;5567197;32;34303;-56
2022/11/04 07:55:38;;;;;;;48.28;30.90;;;;;;;11.77;83.96;100046.97;5565185;32;34263;-56
2022/11/04 07:58:44;;;;;;;45.95;28.87;;;;;;;11.83;83.31;100036.94;5567756;32;33312;-57
2022/11/04 08:01:47;;;;;;;43.90;28.42;;;;;;;11.85;83.35;100036.66;5566141;32;34382;-56
2022/11/04 08:16:51;;;;;;;45.92;29.02;;;;;;;11.74;83.49;100020.69;5560505;32;34817;-56
2022/11/04 08:19:54;;;;;;;51.83;31.40;;;;;;;11.72;83.25;100022.91;5563638;32;33608;-57
2022/11/04 08:22:56;;;;;;;45.97;31.33;;;;;;;11.63;84.12;100016.63;5566409;32;33393;-56
2022/11/04 08:25:59;;;;;;;46.45;31.05;;;;;;;11.74;83.62;100028.75;5564056;32;33489;-57
2022/11/04 08:29:06;;;;;;;47.47;30.30;;;;;;;11.69;83.88;100018.12;5565397;32;33971;-56
2022/11/04 08:32:09;;;;;;;44.03;29.33;;;;;;;11.82;83.11;100011.19;5548813;32;33885;-56
2022/11/04 08:35:11;;;;;;;43.47;29.48;;;;;;;11.93;82.53;100019.87;5553361;32;33625;-57
2022/11/04 08:38:13;;;;;;;43.55;28.58;;;;;;;11.83;82.79;100020.03;5563543;32;33334;-56
2022/11/04 08:41:18;;;;;;;46.58;31.77;;;;;;;11.90;83.22;100013.19;5561828;32;33590;-56
2022/11/04 08:44:21;;;;;;;46.60;30.33;;;;;;;11.68;83.56;100007.66;5566803;32;33705;-56
2022/11/04 08:47:23;;;;;;;45.35;28.77;;;;;;;11.66;84.25;100007.97;5551102;32;33399;-56
2022/11/04 08:50:26;;;;;;;45.58;28.33;;;;;;;11.77;82.81;100004.00;5561785;31;33789;-56
2022/11/04 08:53:28;;;;;;;45.80;29.33;;;;;;;11.73;83.20;100000.31;5567246;31;34125;-57
2022/11/04 08:56:34;;;;;;;48.50;29.95;;;;;;;11.78;82.94;100007.47;5566160;31;33711;-56
2022/11/04 08:59:36;;;;;;;50.30;31.40;;;;;;;11.61;84.16;100007.25;5563700;31;34403;-57
2022/11/04 09:02:39;;;;;;;48.75;29.42;;;;;;;11.64;83.88;100003.97;5566539;32;33612;-57
2022/11/04 09:05:46;;;;;;;55.17;31.27;;;;;;;11.83;82.52;99985.91;5566759;31;33611;-57
2022/11/04 09:08:49;;;;;;;47.47;30.55;;;;;;;11.82;82.53;99978.94;5562530;32;34264;-57
2022/11/04 09:11:52;;;;;;;47.90;30.52;;;;;;;11.67;84.38;99977.34;5564228;31;33683;-57
2022/11/04 09:14:55;;;;;;;49.95;31.42;;;;;;;11.67;85.16;99982.69;5566685;31;33889;-56
2022/11/04 09:17:57;;;;;;;46.60;30.88;;;;;;;11.77;84.96;99979.81;5566117;32;33611;-56
2022/11/04 09:21:01;;;;;;;52.53;31.62;;;;;;;11.80;85.26;99972.28;5566512;32;33538;-56
2022/11/04 09:24:03;;;;;;;44.88;29.37;;;;;;;11.68;84.93;99975.44;5567116;32;33589;-57
2022/11/04 09:27:06;;;;;;;46.75;30.85;;;;;;;11.61;85.93;99980.41;5565818;31;34321;-56
2022/11/04 09:30:09;;;;;;;50.53;31.12;;;;;;;11.62;86.75;99976.63;5565948;32;33195;-57
2022/11/04 09:33:11;;;;;;;52.67;31.00;;;;;;;11.58;87.45;99970.25;5566131;31;34370;-57
2022/11/04 09:36:13;;;;;;;43.40;28.20;;;;;;;11.78;85.91;99972.56;5561507;32;33571;-57
2022/11/04 09:39:16;;;;;;;43.78;29.35;;;;;;;11.85;84.38;99972.97;5565421;32;33691;-56
2022/11/04 09:42:45;;;;;;;45.05;30.95;;;;;;;11.83;84.42;99971.69;5556375;32;32345;-57
2022/11/04 09:45:48;;;;;;;42.53;29.45;;;;;;;11.75;86.85;99965.09;5568944;32;33241;-56
2022/11/04 09:48:54;;;;;;;45.47;31.05;;;;;;;11.73;84.67;99960.03;5568332;31;33778;-56
2022/11/04 09:51:58;;;;;;;44.73;31.10;;;;;;;11.68;85.10;99953.97;5569730;32;33578;-56
2022/11/04 09:55:10;;;;;;;44.78;31.20;;;;;;;11.70;85.08;99952.56;5567091;31;33547;-57
2022/11/04 09:58:13;;;;;;;50.10;32.97;;;;;;;11.71;84.68;99948.78;5568746;31;33574;-56
2022/11/04 10:01:26;;;;;;;44.70;32.08;;;;;;;11.71;85.43;99942.63;5563600;31;33666;-56
2022/11/04 10:04:57;;;;;;;49.45;31.87;;;;;;;11.75;85.46;99936.38;5563471;32;33635;-56
2022/11/04 10:08:02;;;;;;;49.65;32.42;;;;;;;11.72;86.53;99926.22;5562262;32;33665;-56
2022/11/04 10:11:25;;;;;;;50.47;33.60;;;;;;;11.75;86.29;99928.31;5567524;32;33770;-57
2022/11/04 10:14:51;;;;;;;50.33;34.30;;;;;;;11.84;87.23;99900.75;5568713;32;33834;-56
2022/11/04 10:17:57;;;;;;;53.13;33.08;;;;;;;11.89;87.61;99904.16;5566235;32;33388;-57
2022/11/04 10:21:20;;;;;;;54.30;33.85;;;;;;;11.77;87.89;99901.94;5567370;31;33688;-57
2022/11/04 10:24:40;;;;;;;51.60;33.03;;;;;;;11.68;88.79;99901.06;5565296;31;33685;-56
2022/11/04 10:27:45;;;;;;;53.47;35.75;;;;;;;11.66;89.17;99895.19;5566055;31;33256;-56
2022/11/04 10:30:50;;;;;;;47.50;33.78;;;;;;;11.55;90.94;99904.53;5568959;32;33675;-57
2022/11/04 10:34:03;;;;;;;49.75;34.22;;;;;;;11.57;90.77;99901.56;5568762;32;33754;-57
2022/11/04 10:37:10;;;;;;;57.92;35.25;;;;;;;11.68;90.32;99886.84;5564889;32;33728;-56
2022/11/04 10:40:25;;;;;;;52.42;34.00;;;;;;;11.56;89.68;99887.34;5558400;32;34406;-57
2022/11/04 10:43:40;;;;;;;48.70;33.42;;;;;;;11.52;89.37;99897.88;5566703;32;33995;-57
2022/11/04 10:47:26;;;;;;;51.42;34.55;;;;;;;11.52;91.52;99900.56;5565360;32;34445;-56
2022/11/04 10:50:45;;;;;;;53.58;35.60;;;;;;;11.55;91.83;99887.63;5552267;31;33730;-57
2022/11/04 10:53:54;;;;;;;51.67;35.88;;;;;;;11.64;91.55;99883.16;5566327;31;34215;-57
2022/11/04 10:56:57;;;;;;;48.05;33.38;;;;;;;11.65;90.48;99864.06;5565710;32;33198;-56
2022/11/04 11:00:04;;;;;;;49.53;34.30;;;;;;;11.69;89.59;99854.31;5558182;32;34474;-56
2022/11/04 11:03:27;;;;;;;51.63;34.92;;;;;;;11.68;90.74;99847.34;5560178;31;33649;-56
2022/11/04 11:06:32;;;;;;;52.10;35.22;;;;;;;11.66;91.97;99851.44;5562075;31;34417;-57
2022/11/04 11:10:00;;;;;;;49.30;35.20;;;;;;;11.76;90.62;99853.94;5568146;31;34447;-57
2022/11/04 11:13:06;;;;;;;55.58;36.40;;;;;;;11.71;91.00;99846.75;5565140;31;32955;-56
2022/11/04 11:16:16;;;;;;;51.55;35.72;;;;;;;11.73;91.67;99839.19;5561866;32;34159;-57
2022/11/04 11:19:20;;;;;;;52.22;36.78;;;;;;;11.90;89.94;99846.66;5563804;32;33676;-56
2022/11/04 11:22:32;;;;;;;52.78;36.00;;;;;;;11.89;90.65;99846.97;5566706;31;34378;-56
2022/11/04 11:25:41;;;;;;;53.63;36.15;;;;;;;11.87;90.41;99855.31;5566198;32;33851;-56
2022/11/04 11:28:55;;;;;;;57.22;37.75;;;;;;;11.90;90.11;99845.88;5566579;32;33869;-57
2022/11/04 11:32:00;;;;;;;55.45;35.75;;;;;;;11.99;91.11;99844.84;5567949;32;33786;-56
2022/11/04 11:35:03;;;;;;;52.38;35.95;;;;;;;12.02;89.13;99837.28;5567311;32;33487;-57
2022/11/04 11:38:27;;;;;;;50.60;36.13;;;;;;;12.01;90.72;99836.47;5569062;32;34337;-56
2022/11/04 11:41:32;;;;;;;48.70;34.95;;;;;;;12.01;90.01;99836.47;5566534;32;34442;-56
2022/11/04 11:44:46;;;;;;;58.33;36.38;;;;;;;12.08;89.92;99833.37;5557964;32;33381;-56
2022/11/04 11:47:53;;;;;;;62.03;36.75;;;;;;;12.06;90.08;99830.22;5559089;32;34572;-56
2022/11/04 11:50:57;;;;;;;54.22;36.80;;;;;;;12.16;89.71;99820.03;5566181;32;34315;-56
2022/11/04 11:54:16;;;;;;;55.25;37.25;;;;;;;12.18;89.97;99815.12;5568208;32;33886;-57
2022/11/04 11:57:34;;;;;;;55.80;37.75;;;;;;;12.19;88.74;99808.66;5568254;32;34425;-57
2022/11/04 12:01:05;;;;;;;51.60;36.90;;;;;;;12.22;89.53;99797.31;5568243;32;33941;-57
2022/11/04 12:04:18;;;;;;;53.28;37.17;;;;;;;12.23;90.05;99788.16;5554639;32;33545;-58
2022/11/04 12:07:55;;;;;;;55.35;38.53;;;;;;;12.29;88.42;99785.34;5566595;32;33562;-57
2022/11/04 12:11:32;;;;;;;55.00;38.15;;;;;;;12.14;90.14;99789.97;5560530;32;33769;-56
2022/11/04 12:14:39;;;;;;;;;;;;;;;12.29;89.28;99779.97;5561378;32;33739;-56
2022/11/04 12:17:59;;;;;;;55.72;37.58;;;;;;;12.23;88.51;99774.72;5553838;32;34153;-56
2022/11/04 12:21:20;;;;;;;55.60;38.97;;;;;;;12.27;88.28;99768.72;5565396;32;33218;-56
2022/11/04 12:24:41;;;;;;;56.72;37.53;;;;;;;12.21;90.67;99758.09;5554855;32;34447;-56
2022/11/04 12:27:57;;;;;;;56.97;38.15;;;;;;;12.31;90.59;99753.56;5566019;32;33677;-56
2022/11/04 12:31:15;;;;;;;56.67;38.25;;;;;;;12.33;89.95;99740.63;5567765;32;34355;-56
2022/11/04 12:34:48;;;;;;;54.85;39.60;;;;;;;12.31;88.97;99732.06;5549217;32;33763;-57
2022/11/04 12:38:26;;;;;;;58.45;38.42;;;;;;;12.37;88.90;99725.47;5556706;32;33604;-56
2022/11/04 12:41:32;;;;;;;59.03;40.50;;;;;;;12.46;88.38;99719.03;5555427;32;33807;-56
2022/11/04 12:45:17;;;;;;;57.35;39.20;;;;;;;12.52;88.73;99713.53;5567953;32;34353;-56
2022/11/04 12:48:49;;;;;;;57.65;38.65;;;;;;;12.52;88.56;99714.34;5564929;32;33643;-56
2022/11/04 12:52:36;;;;;;;55.45;40.17;;;;;;;12.68;88.42;99702.06;5566932;32;33683;-56
2022/11/04 12:55:51;;;;;;;58.92;39.20;;;;;;;12.53;89.32;99707.06;5568687;32;34337;-57
2022/11/04 12:59:18;;;;;;;60.00;40.55;;;;;;;12.50;88.21;99704.97;5567941;32;34319;-57
2022/11/04 13:02:30;;;;;;;60.20;39.53;;;;;;;12.54;89.22;99704.03;5567517;32;33400;-57
2022/11/04 13:05:50;;;;;;;55.63;39.88;;;;;;;12.55;89.56;99699.44;5566933;32;33695;-56
2022/11/04 13:09:01;;;;;;;56.25;39.28;;;;;;;12.60;89.35;99691.25;5566400;32;34295;-57
2022/11/04 13:12:30;;;;;;;56.55;40.78;;;;;;;12.76;88.81;99689.75;5568107;32;33783;-57
2022/11/04 13:15:42;;;;;;;53.08;37.53;;;;;;;12.69;88.02;99690.19;5549812;32;33618;-57
2022/11/04 13:18:46;;;;;;;59.05;40.35;;;;;;;12.64;87.95;99687.63;5568988;32;33397;-56
2022/11/04 13:21:49;;;;;;;55.28;39.03;;;;;;;12.65;88.18;99685.75;5570797;32;34341;-56
2022/11/04 13:24:58;;;;;;;53.10;38.40;;;;;;;12.75;87.91;99676.59;5569131;32;34455;-56
2022/11/04 13:28:01;;;;;;;54.55;38.42;;;;;;;12.76;87.25;99679.00;5570219;32;33694;-56
2022/11/04 13:31:32;;;;;;;53.95;37.35;;;;;;;12.72;88.09;99674.56;5569861;32;33282;-56
2022/11/04 13:34:54;;;;;;;53.25;37.05;;;;;;;12.81;86.74;99673.47;5570787;32;33950;-56
2022/11/04 13:37:59;;;;;;;54.60;36.33;;;;;;;12.79;87.02;99673.00;5570069;32;33922;-57
2022/11/04 13:41:17;;;;;;;55.80;38.70;;;;;;;12.81;87.26;99667.28;5569965;32;33681;-56
2022/11/04 13:44:30;;;;;;;56.05;37.20;;;;;;;12.73;87.60;99668.84;5565397;32;33666;-57
2022/11/04 13:47:47;;;;;;;53.95;36.45;;;;;;;12.80;87.54;99671.09;5569753;32;34429;-56
2022/11/04 13:50:59;;;;;;;56.15;36.03;;;;;;;12.80;86.67;99669.19;5570542;32;34494;-56
2022/11/04 13:54:02;;;;;;;50.15;35.35;;;;;;;12.86;86.73;99667.94;5569476;32;34280;-56
2022/11/04 13:57:15;;;;;;;51.58;34.45;;;;;;;12.92;86.13;99666.69;5569976;32;33653;-56
2022/11/04 14:00:23;;;;;;;52.28;35.55;;;;;;;12.91;86.91;99672.38;5570290;32;33843;-56
2022/11/04 14:03:25;;;;;;;55.08;36.50;;;;;;;12.89;86.35;99656.56;5570217;32;33834;-57
2022/11/04 14:07:02;;;;;;;56.45;36.13;;;;;;;12.85;87.51;99660.19;5566752;32;34374;-56
2022/11/04 14:10:44;;;;;;;51.70;36.05;;;;;;;12.85;87.44;99662.91;5567591;32;34397;-56
2022/11/04 14:14:00;;;;;;;51.40;35.50;;;;;;;12.85;88.30;99666.37;5568036;31;33977;-56
2022/11/04 14:17:34;;;;;;;52.10;36.60;;;;;;;12.86;87.95;99661.78;5569303;32;33747;-56
2022/11/04 14:20:36;;;;;;;59.30;39.20;;;;;;;12.78;88.98;99655.28;5567919;32;33644;-56
2022/11/04 14:23:40;;;;;;;56.20;37.60;;;;;;;12.57;89.75;99660.41;5568665;32;34298;-56
2022/11/04 14:26:45;;;;;;;63.13;37.05;;;;;;;12.75;89.36;99639.75;5569727;32;33631;-57
2022/11/04 14:29:51;;;;;;;50.12;35.83;;;;;;;12.66;90.21;99639.72;5568910;32;33705;-57
2022/11/04 14:32:58;;;;;;;50.55;35.22;;;;;;;12.64;89.84;99641.13;5569907;32;34272;-56
2022/11/04 14:36:20;;;;;;;52.78;36.13;;;;;;;12.63;90.40;99637.66;5567538;32;34605;-56
2022/11/04 14:39:27;;;;;;;54.28;36.20;;;;;;;12.67;90.05;99641.31;5558733;32;33790;-57
2022/11/04 14:42:47;;;;;;;53.15;35.80;;;;;;;12.68;90.92;99639.41;5566298;32;34451;-57
2022/11/04 14:45:49;;;;;;;56.80;36.58;;;;;;;12.78;90.64;99635.63;5568686;32;33183;-56
2022/11/04 14:48:55;;;;;;;47.15;33.03;;;;;;;12.73;90.78;99627.72;5568889;32;33653;-56
2022/11/04 14:51:58;;;;;;;45.47;30.08;;;;;;;12.78;91.42;99622.19;5569426;32;34559;-57
2022/11/04 14:55:09;;;;;;;43.87;30.08;;;;;;;12.82;91.43;99615.09;5567972;32;33614;-57
2022/11/04 14:58:24;;;;;;;43.25;28.85;;;;;;;13.04;88.45;99616.84;5569806;32;33956;-57
2022/11/04 15:01:30;;;;;;;39.88;28.77;;;;;;;12.98;88.40;99616.25;5568524;32;33623;-56
2022/11/04 15:04:36;;;;;;;46.22;29.35;;;;;;;13.07;87.70;99610.84;5567764;32;33618;-57
2022/11/04 15:07:39;;;;;;;42.67;29.33;;;;;;;13.02;87.96;99617.19;5568463;32;33739;-53
2022/11/04 15:10:41;;;;;;;40.47;29.83;;;;;;;12.99;88.28;99622.41;5568537;32;33670;-54
2022/11/04 15:13:50;;;;;;;46.22;30.75;;;;;;;12.92;89.03;99622.88;5567756;32;33711;-54
2022/11/04 15:16:56;;;;;;;43.28;29.95;;;;;;;12.88;88.98;99616.50;5562460;32;33718;-54
2022/11/04 15:20:01;;;;;;;52.88;33.95;;;;;;;12.89;90.43;99618.91;5549557;32;33688;-55
2022/11/04 15:23:06;;;;;;;47.08;33.22;;;;;;;12.83;89.35;99616.69;5565177;32;33936;-54
2022/11/04 15:26:26;;;;;;;49.20;32.90;;;;;;;12.84;90.39;99607.50;5567438;32;33987;-54
2022/11/04 15:29:32;;;;;;;46.55;32.95;;;;;;;12.81;90.66;99611.59;5563332;32;33255;-54
2022/11/04 15:32:34;;;;;;;46.70;32.75;;;;;;;12.81;90.62;99608.12;5568965;32;34425;-54
2022/11/04 15:35:42;;;;;;;52.53;34.35;;;;;;;12.91;90.79;99615.88;5567531;31;33802;-54
2022/11/04 15:38:49;;;;;;;47.28;34.72;;;;;;;12.92;90.35;99604.81;5556422;32;34292;-54
2022/11/04 15:45:37;;;;;;;48.67;32.95;;;;;;;12.81;90.78;99605.44;5569162;32;33454;-55
2022/11/04 15:48:40;;;;;;;49.50;34.40;;;;;;;12.82;90.77;99607.03;5568378;32;33609;-54
2022/11/04 15:51:42;;;;;;;46.33;32.70;;;;;;;12.77;91.06;99605.25;5569166;32;33616;-56
2022/11/04 15:54:47;;;;;;;46.22;34.15;;;;;;;12.72;91.45;99608.12;5568561;32;33830;-57
2022/11/04 15:57:50;;;;;;;48.53;33.83;;;;;;;12.79;91.59;99608.44;5567292;32;33781;-57
2022/11/04 16:00:54;;;;;;;43.90;31.83;;;;;;;12.83;91.67;99611.28;5568715;32;33228;-57
2022/11/04 16:03:59;;;;;;;47.67;34.10;;;;;;;12.83;90.62;99616.69;5568647;32;33940;-56
2022/11/04 16:07:22;;;;;;;50.08;34.90;;;;;;;12.84;91.18;99610.97;5568762;32;33748;-56
2022/11/04 16:10:24;;;;;;;50.63;33.13;;;;;;;12.76;92.40;99614.44;5566842;32;33691;-56
2022/11/04 16:13:26;;;;;;;47.95;32.80;;;;;;;12.76;92.22;99619.81;5564793;32;33753;-57
2022/11/04 16:16:29;;;;;;;46.92;32.53;;;;;;;12.85;91.20;99619.84;5566858;32;33922;-56
2022/11/04 16:19:31;;;;;;;46.70;33.75;;;;;;;12.75;92.30;99623.62;5565630;31;34225;-56
2022/11/04 16:22:37;;;;;;;46.42;32.45;;;;;;;12.74;91.85;99626.63;5565585;32;34279;-57
2022/11/04 16:25:39;;;;;;;46.13;32.03;;;;;;;12.78;91.26;99631.06;5564754;32;33811;-56
2022/11/04 16:28:42;;;;;;;43.85;32.67;;;;;;;12.75;91.70;99618.25;5565600;31;33671;-57
2022/11/04 16:31:44;;;;;;;44.33;30.98;;;;;;;12.79;91.05;99619.19;5564281;32;34075;-57
2022/11/04 16:34:51;;;;;;;47.75;30.52;;;;;;;12.84;91.64;99615.56;5564733;32;33750;-57
2022/11/04 16:37:55;;;;;;;46.13;31.15;;;;;;;12.77;91.67;99616.03;5556508;32;33785;-56
